Main page
METAR-TAF:

METAR-TAF

Airports :

Avignon – Provence Airport

Avignon, France

latitude: 43-54-26N, longitude: 004-54-07E, elevation: 38 m

Current weather observation

The report was made 14 minutes ago, at 21:00 UTC
Wind 4 kt from the North, varying between Northwest and North/Northeast
Temperature 4°C
Humidity 70%
Pressure 1021 hPa
Visibility 10 km or more
no clouds below 1500 m and no cumulonimbus

METAR: LFMV 102100Z AUTO 35004KT 310V020 CAVOK 04/M01 Q1021

Time: 22:14 (21:14 UTC)

Forecast

The report was made 7 hours and 14 minutes ago, at 14:00 UTC
Forecast valid from 10 at 15 UTC to 11 at 15 UTC
Wind 22 kt from the North
Visibility 10 km or more
no clouds below 1500 m and no cumulonimbus
Becoming
from 10 at 18 UTC to 10 at 20 UTC
Wind 5 kt from the North
Temporary
from 11 at 10 UTC to 11 at 15 UTC
Broken clouds at a height of 2000 ft
rain

TAF: LFMV 101400Z 1015/1115 35022KT CAVOK BECMG 1018/1020 36005KT TEMPO 1110/1115 RA BKN020

Weather observations and forecasts of more than 4000 airports (METAR and TAF reports).

The available stations are represented by yellow and red dots on the map.

Hover mouse over dot to see the name of the station.

Then click to see weather observations and forecasts.

To change the map : click on the green buttons with a black cross to zoom in, on the green button with a dash to zoom out, or on the green arrows for adjacent maps.


METAR-TAF: